Detalii statie VESTAGRAR MARGHITA [00001D0E]

Toti senzorii

Date Temperatura solului [C]Precipitatii [mm]Voltaj baterie [mV]Leaf Wetness [Min]HC Air temperature [C]HC Relative humidity [%]Punctul de roua [C]
medieminmaxsumaultimatimpmedieminmaxmediemediemin
2018-08-12 11:00:00 0 7294 30.26 29.23 31.42 51.98 19 18.5
2018-08-12 12:00:00 0 7294 30.06 28.9 31.2 14.65 3.7 0
2018-08-12 13:00:00 0 7294 32.26 31.02 33.19 17.04 0
2018-08-12 14:00:00 0 7294 31.72 30.15 33.12 7.67 0
2018-08-12 15:00:00 0 7274 32.29 30.32 34.24 1.48 -1.5 0
2018-08-12 16:00:00 0 7284 32.34 30.84 33.5 22.56 0
2018-08-12 17:00:00 0 7274 32.08 30.66 34.05 16.56 0
2018-08-12 18:00:00 0 7284 30.48 30.31 30.71 0 0 0
2018-08-12 19:00:00 0 6982 29.61 28.66 30.17 0 0 0
2018-08-12 20:00:00 0 6952 26.45 24.13 28.52 0 0 0
2018-08-12 21:00:00 0 6952 22.26 21.15 23.55 2.26 0
2018-08-12 22:00:00 0 6942 20.01 18.84 21.89 0 0 0
2018-08-12 23:00:00 0 6932 18.81 18.04 19.69 0 0 0
2018-08-13 00:00:00 0 6932 17.9 17.26 18.38 0 0 0
2018-08-13 01:00:00 0 6904 17.41 16.86 18.01 0 0 0
2018-08-13 02:00:00 0 6894 16.4 15.89 16.85 0 0 0
2018-08-13 03:00:00 0 6884 15.93 14.95 16.38 0 0 0
2018-08-13 04:00:00 0 6884 15.8 14.85 16.37 0 0 0
2018-08-13 05:00:00 0 6884 15.01 14.62 15.73 0 0 0
2018-08-13 06:00:00 0 6874 14.79 14.47 15.1 0 0 0
2018-08-13 07:00:00 0 6932 16.85 15.23 18.91 0 0 0
2018-08-13 08:00:00 0 7080 22.89 19.85 25.81 0 0 0
2018-08-13 09:00:00 0 7226 27.55 26.02 28.84 0 0 0
2018-08-13 10:00:00 0 7304 29.6 28.36 31.61 0 0 0
2018-08-13 11:00:00 0 7304 32.22 29.93 33.17 9.55 0
2018-08-13 12:00:00 0 7274 32.8 31.23 34.22 0 0 0
2018-08-13 13:00:00 0 7254 32.87 30.4 34.18 0 0 0
2018-08-13 14:00:00 0 7294 34.25 32.78 35.41 0 0 0
2018-08-13 15:00:00 0 7274 33.9 32.96 35.11 0 0
2018-08-13 16:00:00 0 7304 33.63 32.61 34.53 0 0 0
2018-08-13 17:00:00 0 7264 32.65 31.63 34.05 0 0 0
2018-08-13 18:00:00 0 7274 31 30.67 31.34 0 0 0
2018-08-13 19:00:00 0 6992 29.53 28.31 30.53 8.83 2.9 0
2018-08-13 20:00:00 0 6942 26.65 25.25 28 14.6 3.6 0
2018-08-13 21:00:00 0 6942 24.85 24.44 25.2 0 0 0
2018-08-13 22:00:00 0 6942 24.73 24.02 25.25 0 0 0
2018-08-13 23:00:00 0 6942 22.45 20.92 24.19 0 0 0
2018-08-14 00:00:00 0 6922 20.18 19.55 20.97 0 0 0
2018-08-14 01:00:00 0 6922 18.9 18.51 19.72 0 0 0
2018-08-14 02:00:00 0 6904 17.94 17.39 18.65 0 0 0
2018-08-14 03:00:00 0 6894 17.43 16.66 17.95 0 0 0
2018-08-14 04:00:00 0 6884 16.86 15.84 17.68 0 0 0
2018-08-14 05:00:00 0 6884 15.9 15.61 16.19 0 0 0
2018-08-14 06:00:00 0 6884 15.88 15.28 16.31 0 0 0
2018-08-14 07:00:00 0 6932 17.1 15.61 19.38 0 0 0
2018-08-14 08:00:00 0 7060 24.01 19.82 26.58 0 0 0
2018-08-14 09:00:00 0 7216 27.84 26.58 29.38 21.04 0
2018-08-14 10:00:00 0 7294 30.02 29.39 31.01 47.54 17.4 16.9